createdAt,value
2023-10-29T00:01:04.274Z,99441.19
2023-10-29T00:03:32.045Z,99440.81
2023-10-29T00:06:01.288Z,99437.00
2023-10-29T00:08:29.231Z,99430.97
2023-10-29T00:10:56.823Z,99430.13
2023-10-29T00:13:26.389Z,99421.09
2023-10-29T00:15:54.155Z,99422.84
2023-10-29T00:18:21.912Z,99418.09
2023-10-29T00:20:49.628Z,99412.06
2023-10-29T00:23:18.600Z,99414.25
2023-10-29T00:25:46.200Z,99411.81
2023-10-29T00:28:13.715Z,99411.13
2023-10-29T00:30:41.399Z,99401.72
2023-10-29T00:33:09.134Z,99401.81
2023-10-29T00:35:37.320Z,99390.91
2023-10-29T00:38:04.920Z,99379.44
2023-10-29T00:40:33.935Z,99372.56
2023-10-29T00:43:01.776Z,99353.88
2023-10-29T00:45:29.705Z,99356.81
2023-10-29T00:47:58.068Z,99354.94
2023-10-29T00:50:26.067Z,99358.75
2023-10-29T00:52:53.883Z,99348.56
2023-10-29T00:55:21.677Z,99343.56
2023-10-29T00:57:50.689Z,99352.38
2023-10-29T01:00:22.362Z,99348.88
2023-10-29T01:02:50.138Z,99353.88
2023-10-29T01:05:17.945Z,99337.22
2023-10-29T01:07:45.748Z,99315.41
2023-10-29T01:10:13.794Z,99302.78
2023-10-29T01:12:41.442Z,99290.81
2023-10-29T01:15:11.497Z,99305.22
2023-10-29T01:17:39.351Z,99322.50
2023-10-29T01:20:08.093Z,99328.06
2023-10-29T01:22:35.800Z,99323.56
2023-10-29T01:25:06.691Z,99320.88
2023-10-29T01:27:35.156Z,99314.75
2023-10-29T01:30:02.763Z,99318.56
2023-10-29T01:32:31.717Z,99318.56
2023-10-29T01:34:59.653Z,99311.81
2023-10-29T01:37:27.256Z,99305.22
2023-10-29T01:39:54.878Z,99306.25
2023-10-29T01:42:22.540Z,99303.94
2023-10-29T01:44:50.319Z,99301.41
2023-10-29T01:47:18.161Z,99290.81
2023-10-29T01:49:47.080Z,99294.06
2023-10-29T01:52:15.015Z,99294.56
2023-10-29T01:54:43.210Z,99296.16
2023-10-29T01:57:10.789Z,99288.41
2023-10-29T01:59:38.358Z,99287.66
2023-10-29T02:02:06.315Z,99286.56
2023-10-29T02:04:35.150Z,99280.72
2023-10-29T02:07:05.201Z,99279.91
2023-10-29T02:09:32.824Z,99271.19
2023-10-29T02:12:01.976Z,99283.69
2023-10-29T02:14:31.118Z,99263.25
2023-10-29T02:16:59.225Z,99252.03
2023-10-29T02:19:26.839Z,99249.44
2023-10-29T02:21:56.755Z,99237.47
2023-10-29T02:24:24.567Z,99230.53
2023-10-29T02:26:52.231Z,99220.66
2023-10-29T02:29:19.880Z,99218.56
2023-10-29T02:31:47.546Z,99217.25
2023-10-29T02:34:15.216Z,99209.41
2023-10-29T02:36:42.800Z,99207.31
2023-10-29T02:39:13.818Z,99204.66
2023-10-29T02:41:42.038Z,99199.06
2023-10-29T02:44:09.653Z,99193.16
2023-10-29T02:46:37.455Z,99188.97
2023-10-29T02:49:05.121Z,99187.66
2023-10-29T02:51:33.135Z,99178.59
2023-10-29T02:54:00.823Z,99177.06
2023-10-29T02:56:31.599Z,99172.75
2023-10-29T02:58:59.211Z,99164.84
2023-10-29T03:01:26.875Z,99149.13
2023-10-29T03:03:54.840Z,99149.94
2023-10-29T03:06:23.121Z,99146.78
2023-10-29T03:08:50.855Z,99142.56
2023-10-29T03:11:18.526Z,99136.97
2023-10-29T03:13:47.387Z,99138.28
2023-10-29T03:16:15.028Z,99133.25
2023-10-29T03:18:42.657Z,99126.50
2023-10-29T03:21:10.235Z,99107.63
2023-10-29T03:23:37.877Z,99109.47
2023-10-29T03:26:05.535Z,99109.47
2023-10-29T03:28:33.110Z,99103.34
2023-10-29T03:31:02.479Z,99093.44
2023-10-29T03:33:30.199Z,99087.31
2023-10-29T03:35:57.831Z,99084.91
2023-10-29T03:38:25.467Z,99074.75
2023-10-29T03:40:53.108Z,99070.81
2023-10-29T03:43:20.680Z,99064.66
2023-10-29T03:45:48.355Z,99059.31
2023-10-29T03:48:17.476Z,99060.91
2023-10-29T03:50:45.218Z,99050.25
2023-10-29T03:53:12.767Z,99043.34
2023-10-29T03:55:40.474Z,99028.88
2023-10-29T03:58:08.052Z,99030.00
2023-10-29T04:00:35.659Z,99032.13
2023-10-29T04:03:03.423Z,99032.13
2023-10-29T04:05:35.340Z,99030.28
2023-10-29T04:08:03.029Z,99026.28
2023-10-29T04:10:30.710Z,99012.94
2023-10-29T04:12:58.512Z,99014.53
2023-10-29T04:15:26.122Z,99004.94
2023-10-29T04:17:53.757Z,98998.78
2023-10-29T04:20:21.401Z,98999.63
2023-10-29T04:22:50.445Z,98994.81
2023-10-29T04:25:18.142Z,98998.59
2023-10-29T04:27:46.008Z,98993.31
2023-10-29T04:30:14.142Z,98984.25
2023-10-29T04:32:41.938Z,98988.50
2023-10-29T04:35:10.131Z,98990.13
2023-10-29T04:37:37.732Z,98991.75
2023-10-29T04:40:08.448Z,98988.56
2023-10-29T04:42:36.061Z,98978.44
2023-10-29T04:45:04.622Z,98983.50
2023-10-29T04:47:32.397Z,98976.31
2023-10-29T04:50:00.014Z,98967.25
2023-10-29T04:52:27.814Z,98963.53
2023-10-29T04:54:55.929Z,98968.38
2023-10-29T04:57:24.861Z,98952.34
2023-10-29T04:59:53.495Z,98943.25
2023-10-29T05:02:23.043Z,98956.38
2023-10-29T05:04:50.671Z,98951.84
2023-10-29T05:07:18.245Z,98950.56
2023-10-29T05:09:46.084Z,98949.22
2023-10-29T05:12:13.625Z,98947.59
2023-10-29T05:14:42.558Z,98940.13
2023-10-29T05:17:11.528Z,98924.69
2023-10-29T05:19:40.110Z,98922.56
2023-10-29T05:22:07.822Z,98918.78
2023-10-29T05:24:35.401Z,98907.84
2023-10-29T05:27:04.145Z,98902.50
2023-10-29T05:29:33.589Z,98898.22
2023-10-29T05:32:02.536Z,98894.22
2023-10-29T05:34:30.103Z,98895.84
2023-10-29T05:36:57.672Z,98898.50
2023-10-29T05:39:25.294Z,98896.66
2023-10-29T05:41:52.926Z,98899.63
2023-10-29T05:44:20.599Z,98902.84
2023-10-29T05:46:48.916Z,98902.03
2023-10-29T05:49:17.770Z,98902.31
2023-10-29T05:51:45.426Z,98893.25
2023-10-29T05:54:12.971Z,98909.28
2023-10-29T05:56:40.608Z,98903.94
2023-10-29T05:59:08.323Z,98903.44
2023-10-29T06:01:35.894Z,98901.81
2023-10-29T06:04:03.718Z,98910.63
2023-10-29T06:06:32.751Z,98909.56
2023-10-29T06:09:04.404Z,98904.50
2023-10-29T06:11:37.670Z,98904.50
2023-10-29T06:14:05.313Z,98900.28
2023-10-29T06:16:32.936Z,98896.53
2023-10-29T06:19:00.492Z,98896.81
2023-10-29T06:21:28.406Z,98895.22
2023-10-29T06:23:57.409Z,98896.81
2023-10-29T06:26:25.495Z,98896.81
2023-10-29T06:28:53.059Z,98896.28
2023-10-29T06:31:20.929Z,98903.00
2023-10-29T06:33:48.872Z,98896.59
2023-10-29T06:36:16.420Z,98888.34
2023-10-29T06:38:44.025Z,98896.88
2023-10-29T06:41:12.996Z,98884.63
2023-10-29T06:43:40.628Z,98888.09
2023-10-29T06:46:08.219Z,98884.88
2023-10-29T06:48:42.601Z,98891.63
2023-10-29T06:51:10.513Z,98877.97
2023-10-29T06:53:38.177Z,98884.94
2023-10-29T06:56:06.723Z,98877.47
2023-10-29T06:58:35.637Z,98884.41
2023-10-29T07:01:06.398Z,98899.13
2023-10-29T07:03:34.698Z,98905.31
2023-10-29T07:06:10.357Z,98889.81
2023-10-29T07:08:38.749Z,98881.53
2023-10-29T07:11:07.008Z,98889.28
2023-10-29T07:13:36.154Z,98884.50
2023-10-29T07:16:05.542Z,98875.16
2023-10-29T07:18:33.411Z,98883.44
2023-10-29T07:21:01.195Z,98890.16
2023-10-29T07:23:28.942Z,98890.94
2023-10-29T07:25:56.873Z,98895.75
2023-10-29T07:28:24.403Z,98899.00
2023-10-29T07:30:53.379Z,98900.06
2023-10-29T07:33:21.001Z,98895.81
2023-10-29T07:35:48.815Z,98904.38
2023-10-29T07:38:16.442Z,98887.56
2023-10-29T07:40:44.237Z,98876.06
2023-10-29T07:43:11.807Z,98886.28
2023-10-29T07:45:39.409Z,98892.69
2023-10-29T07:48:08.458Z,98882.03
2023-10-29T07:50:36.148Z,98905.88
2023-10-29T07:53:03.791Z,98900.53
2023-10-29T07:55:31.374Z,98886.88
2023-10-29T07:57:58.925Z,98862.25
2023-10-29T08:00:26.567Z,98858.78
2023-10-29T08:02:54.200Z,98850.22
2023-10-29T08:05:23.998Z,98869.78
2023-10-29T08:07:51.589Z,98863.91
2023-10-29T08:10:20.008Z,98875.16
2023-10-29T08:12:47.905Z,98867.13
2023-10-29T08:15:15.512Z,98863.38
2023-10-29T08:17:43.269Z,98874.63
2023-10-29T08:20:12.692Z,98886.41
2023-10-29T08:22:43.874Z,98879.44
2023-10-29T08:25:13.083Z,98886.69
2023-10-29T08:27:40.676Z,98869.25
2023-10-29T08:30:11.359Z,98885.31
2023-10-29T08:32:39.112Z,98889.63
2023-10-29T08:35:08.593Z,98891.25
2023-10-29T08:37:36.435Z,98898.47
2023-10-29T08:40:06.418Z,98896.03
2023-10-29T08:42:34.859Z,98902.72
2023-10-29T08:45:02.516Z,98901.41
2023-10-29T08:47:31.647Z,98900.31
2023-10-29T08:49:59.682Z,98883.66
2023-10-29T08:52:27.353Z,98888.50
2023-10-29T08:54:55.201Z,98895.97
2023-10-29T08:57:24.138Z,98876.31
2023-10-29T08:59:51.796Z,98875.50
2023-10-29T09:02:19.468Z,98882.19
2023-10-29T09:04:48.093Z,98878.06
2023-10-29T09:07:15.813Z,98881.28
2023-10-29T09:09:43.425Z,98890.34
2023-10-29T09:12:11.004Z,98881.97
2023-10-29T09:14:39.977Z,98884.91
2023-10-29T09:17:07.692Z,98890.75
2023-10-29T09:19:35.385Z,98903.16
2023-10-29T09:22:02.973Z,98888.88
2023-10-29T09:24:30.625Z,98921.31
2023-10-29T09:26:58.735Z,98916.94
2023-10-29T09:29:26.493Z,98895.50
2023-10-29T09:31:55.414Z,98906.81
2023-10-29T09:34:22.996Z,98917.72
2023-10-29T09:36:50.563Z,98928.56
2023-10-29T09:39:18.521Z,98936.84
2023-10-29T09:41:46.427Z,98923.34
2023-10-29T09:44:19.366Z,98931.75
2023-10-29T09:46:48.100Z,98910.19
2023-10-29T09:49:17.125Z,98912.94
2023-10-29T09:51:44.811Z,98909.25
2023-10-29T09:54:14.276Z,98906.09
2023-10-29T09:56:41.940Z,98917.41
2023-10-29T09:59:09.569Z,98918.38
2023-10-29T10:01:47.967Z,98929.63
2023-10-29T10:04:24.665Z,98934.25
2023-10-29T10:06:53.379Z,98932.06
2023-10-29T10:09:21.278Z,98934.94
2023-10-29T10:12:04.449Z,98933.88
2023-10-29T10:14:32.200Z,98931.69
2023-10-29T10:17:09.919Z,98942.97
2023-10-29T10:19:39.633Z,98931.09
2023-10-29T10:22:07.816Z,98941.25
2023-10-29T10:24:40.734Z,98943.38
2023-10-29T10:27:10.196Z,98942.88
2023-10-29T10:29:38.114Z,98959.25
2023-10-29T10:32:07.569Z,98953.00
2023-10-29T10:34:38.290Z,98963.22
2023-10-29T10:37:07.618Z,98966.88
2023-10-29T10:39:35.444Z,98959.63
2023-10-29T10:42:04.462Z,98959.94
2023-10-29T10:44:33.105Z,98976.59
2023-10-29T10:47:03.650Z,98972.19
2023-10-29T10:49:32.744Z,98993.78
2023-10-29T10:52:03.050Z,98998.13
2023-10-29T10:54:32.291Z,98992.69
2023-10-29T10:57:01.665Z,98995.84
2023-10-29T10:59:29.367Z,98998.50
2023-10-29T11:01:57.926Z,99010.38
2023-10-29T11:04:27.663Z,99007.88
2023-10-29T11:06:55.958Z,99009.75
2023-10-29T11:09:24.725Z,99012.38
2023-10-29T11:11:57.251Z,99008.03
2023-10-29T11:14:26.040Z,99016.06
2023-10-29T11:16:55.465Z,99006.03
2023-10-29T11:19:41.092Z,99002.44
2023-10-29T11:22:28.630Z,98994.53
2023-10-29T11:25:39.301Z,98991.78
2023-10-29T11:28:09.213Z,98994.78
2023-10-29T11:30:37.100Z,99003.81
2023-10-29T11:33:19.788Z,99007.84
2023-10-29T11:35:48.208Z,99020.47
2023-10-29T11:38:30.708Z,99010.72
2023-10-29T11:40:58.491Z,99019.53
2023-10-29T11:43:28.303Z,99016.59
2023-10-29T11:45:57.694Z,99006.38
2023-10-29T11:48:26.714Z,99009.56
2023-10-29T11:51:22.707Z,99005.25
2023-10-29T11:53:50.302Z,98995.03
2023-10-29T11:56:18.540Z,98986.41
2023-10-29T11:58:47.460Z,98991.00
2023-10-29T12:01:21.874Z,98989.84
2023-10-29T12:03:53.887Z,99003.88
2023-10-29T12:06:21.749Z,98995.53
2023-10-29T12:08:49.349Z,99004.47
2023-10-29T12:11:17.084Z,99010.16
2023-10-29T12:13:45.512Z,99015.44
2023-10-29T12:16:14.485Z,99011.00
2023-10-29T12:18:43.638Z,99011.50
2023-10-29T12:21:12.284Z,99004.88
2023-10-29T12:23:40.512Z,99001.56
2023-10-29T12:26:11.722Z,99004.75
2023-10-29T12:28:40.044Z,99012.63
2023-10-29T12:31:10.382Z,99002.56
2023-10-29T12:33:40.056Z,98996.59
2023-10-29T12:36:16.090Z,99001.63
2023-10-29T12:38:43.894Z,98997.25
2023-10-29T12:41:14.690Z,99009.44
2023-10-29T12:43:43.784Z,99009.91
2023-10-29T12:46:12.914Z,99005.97
2023-10-29T12:49:01.802Z,99017.66
2023-10-29T12:51:31.973Z,99022.16
2023-10-29T12:54:14.903Z,99028.59
2023-10-29T12:56:53.199Z,99025.16
2023-10-29T12:59:21.582Z,99025.91
2023-10-29T13:01:51.144Z,99015.88
2023-10-29T13:04:20.627Z,99021.31
2023-10-29T13:06:48.164Z,99015.63
2023-10-29T13:09:20.525Z,99007.28
2023-10-29T13:11:49.438Z,99021.97
2023-10-29T13:14:17.002Z,99027.13
2023-10-29T13:16:44.843Z,99015.06
2023-10-29T13:19:12.658Z,99010.13
2023-10-29T13:21:42.052Z,99016.41
2023-10-29T13:24:10.187Z,99009.66
2023-10-29T13:26:38.941Z,99024.81
2023-10-29T13:29:07.738Z,99017.63
2023-10-29T13:31:35.719Z,99005.22
2023-10-29T13:34:03.286Z,99010.69
2023-10-29T13:36:30.836Z,99007.34
2023-10-29T13:39:00.118Z,99002.84
2023-10-29T13:41:28.389Z,99007.88
2023-10-29T13:43:56.104Z,98997.69
2023-10-29T13:46:24.041Z,98996.78
2023-10-29T13:48:54.130Z,99000.56
2023-10-29T13:51:22.510Z,98991.47
2023-10-29T13:53:50.398Z,98992.03
2023-10-29T13:56:19.415Z,98995.28
2023-10-29T13:58:47.997Z,99015.19
2023-10-29T14:01:20.006Z,99018.75
2023-10-29T14:03:48.205Z,99021.72
2023-10-29T14:06:15.990Z,99012.06
2023-10-29T14:08:44.113Z,99019.06
2023-10-29T14:11:12.214Z,99019.63
2023-10-29T14:13:41.799Z,99026.16
2023-10-29T14:16:10.795Z,99036.91
2023-10-29T14:18:38.463Z,99034.22
2023-10-29T14:21:07.114Z,99023.50
2023-10-29T14:23:36.049Z,99011.13
2023-10-29T14:26:04.024Z,99011.69
2023-10-29T14:28:31.606Z,99016.56
2023-10-29T14:31:00.823Z,99010.66
2023-10-29T14:33:28.603Z,99011.75
2023-10-29T14:35:57.415Z,99014.44
2023-10-29T14:38:25.475Z,99000.94
2023-10-29T14:40:54.667Z,99007.03
2023-10-29T14:43:23.524Z,99010.69
2023-10-29T14:45:52.433Z,99010.88
2023-10-29T14:48:21.983Z,99019.38
2023-10-29T14:50:49.991Z,99007.22
2023-10-29T14:53:17.633Z,99033.09
2023-10-29T14:55:48.432Z,99019.56
2023-10-29T14:58:16.396Z,99009.13
2023-10-29T15:00:44.332Z,99020.25
2023-10-29T15:03:12.672Z,99032.13
2023-10-29T15:05:42.197Z,99037.06
2023-10-29T15:08:09.856Z,99039.25
2023-10-29T15:10:37.604Z,99044.13
2023-10-29T15:13:05.461Z,99049.28
2023-10-29T15:15:33.888Z,99042.59
2023-10-29T15:18:01.743Z,99039.94
2023-10-29T15:20:31.165Z,99027.59
2023-10-29T15:23:02.404Z,99029.50
2023-10-29T15:25:30.972Z,99013.91
2023-10-29T15:27:58.578Z,99024.41
2023-10-29T15:30:26.811Z,99016.38
2023-10-29T15:32:55.341Z,99010.19
2023-10-29T15:35:23.026Z,99009.38
2023-10-29T15:37:50.649Z,99015.31
2023-10-29T15:40:19.748Z,99005.13
2023-10-29T15:42:47.305Z,99008.09
2023-10-29T15:45:14.999Z,98990.41
2023-10-29T15:47:43.041Z,99005.19
2023-10-29T15:50:12.621Z,98998.50
2023-10-29T15:52:40.438Z,98983.19
2023-10-29T15:55:09.329Z,98972.72
2023-10-29T15:57:38.339Z,98994.50
2023-10-29T16:00:09.209Z,98997.22
2023-10-29T16:02:37.257Z,98999.13
2023-10-29T16:05:05.720Z,98995.09
2023-10-29T16:07:33.319Z,98991.63
2023-10-29T16:10:00.910Z,98991.63
2023-10-29T16:12:28.584Z,98995.41
2023-10-29T16:14:58.404Z,98991.91
2023-10-29T16:17:26.013Z,98991.13
2023-10-29T16:19:53.555Z,98978.25
2023-10-29T16:22:21.081Z,98977.72
2023-10-29T16:24:48.739Z,98987.91
2023-10-29T16:27:16.824Z,98972.66
2023-10-29T16:29:44.506Z,98982.28
2023-10-29T16:32:13.496Z,98983.09
2023-10-29T16:34:41.826Z,98983.91
2023-10-29T16:37:09.357Z,98976.41
2023-10-29T16:39:37.178Z,98959.25
2023-10-29T16:42:06.325Z,98968.38
2023-10-29T16:44:34.666Z,98975.38
2023-10-29T16:47:03.561Z,98973.78
2023-10-29T16:49:32.732Z,98976.19
2023-10-29T16:52:00.626Z,98985.31
2023-10-29T16:54:30.378Z,98980.72
2023-10-29T16:56:58.070Z,98976.47
2023-10-29T16:59:25.685Z,98965.75
2023-10-29T17:01:54.476Z,98957.13
2023-10-29T17:04:22.525Z,98962.50
2023-10-29T17:06:51.443Z,98955.00
2023-10-29T17:09:19.513Z,98940.50
2023-10-29T17:11:48.662Z,98934.91
2023-10-29T17:14:18.352Z,98937.31
2023-10-29T17:16:47.964Z,98931.41
2023-10-29T17:19:15.535Z,98927.09
2023-10-29T17:21:43.788Z,98924.69
2023-10-29T17:24:12.842Z,98938.09
2023-10-29T17:26:40.451Z,98949.09
2023-10-29T17:29:08.033Z,98951.53
2023-10-29T17:31:35.633Z,98944.56
2023-10-29T17:34:03.203Z,98938.66
2023-10-29T17:36:30.975Z,98944.28
2023-10-29T17:38:58.634Z,98953.91
2023-10-29T17:41:27.581Z,98959.03
2023-10-29T17:43:55.596Z,98956.06
2023-10-29T17:46:23.835Z,98962.78
2023-10-29T17:48:53.744Z,98960.91
2023-10-29T17:51:21.476Z,98948.03
2023-10-29T17:53:51.188Z,98956.06
2023-10-29T17:56:18.925Z,98980.22
2023-10-29T17:58:48.962Z,98988.53
2023-10-29T18:01:16.764Z,98968.94
2023-10-29T18:03:47.734Z,98953.94
2023-10-29T18:06:19.592Z,98938.91
2023-10-29T18:08:49.526Z,98937.84
2023-10-29T18:11:18.743Z,98934.63
2023-10-29T18:13:47.995Z,98932.75
2023-10-29T18:16:17.178Z,98934.09
2023-10-29T18:18:44.847Z,98934.09
2023-10-29T18:21:12.809Z,98942.41
2023-10-29T18:23:40.580Z,98955.00
2023-10-29T18:26:08.244Z,98976.72
2023-10-29T18:28:35.826Z,98977.81
2023-10-29T18:31:08.011Z,98985.59
2023-10-29T18:33:36.204Z,98982.09
2023-10-29T18:36:08.714Z,98979.13
2023-10-29T18:38:36.513Z,98962.50
2023-10-29T18:41:10.750Z,98970.81
2023-10-29T18:43:38.353Z,98988.22
2023-10-29T18:46:11.855Z,98978.03
2023-10-29T18:48:39.909Z,98976.13
2023-10-29T18:51:07.952Z,98994.06
2023-10-29T18:53:35.601Z,99001.53
2023-10-29T18:56:04.410Z,98999.97
2023-10-29T18:58:32.015Z,98999.38
2023-10-29T19:01:09.237Z,99006.88
2023-10-29T19:03:38.927Z,99019.47
2023-10-29T19:06:07.798Z,99010.09
2023-10-29T19:08:36.079Z,99014.13
2023-10-29T19:11:04.764Z,99002.34
2023-10-29T19:13:32.729Z,99012.00
2023-10-29T19:16:04.933Z,99009.34
2023-10-29T19:18:33.052Z,99014.66
2023-10-29T19:21:02.213Z,99018.13
2023-10-29T19:23:29.975Z,99017.59
2023-10-29T19:25:58.178Z,99022.38
2023-10-29T19:28:25.954Z,99025.06
2023-10-29T19:31:16.282Z,99025.84
2023-10-29T19:33:41.661Z,99017.81
2023-10-29T19:36:14.923Z,99017.78
2023-10-29T19:38:43.413Z,99032.53
2023-10-29T19:41:11.385Z,99033.34
2023-10-29T19:43:38.955Z,99028.75
2023-10-29T19:46:06.570Z,99029.31
2023-10-29T19:48:34.283Z,99041.59
2023-10-29T19:51:03.330Z,99035.94
2023-10-29T19:53:33.931Z,99044.25
2023-10-29T19:56:02.281Z,99046.13
2023-10-29T19:58:29.822Z,99043.75
2023-10-29T20:01:05.115Z,99044.50
2023-10-29T20:03:33.339Z,99050.13
2023-10-29T20:09:01.163Z,99060.25
2023-10-29T20:11:32.992Z,99059.97
2023-10-29T20:14:03.011Z,99057.59
2023-10-29T20:16:30.626Z,99064.50
2023-10-29T20:18:58.693Z,99067.16
2023-10-29T20:21:27.858Z,99069.31
2023-10-29T20:23:57.002Z,99065.00
2023-10-29T20:26:25.111Z,99061.00
2023-10-29T20:28:53.170Z,99061.81
2023-10-29T20:31:21.592Z,99069.00
2023-10-29T20:33:50.702Z,99071.44
2023-10-29T20:36:18.604Z,99079.19
2023-10-29T20:38:46.250Z,99081.88
2023-10-29T20:41:15.261Z,99083.44
2023-10-29T20:43:42.883Z,99089.34
2023-10-29T20:46:11.741Z,99093.38
2023-10-29T20:48:39.752Z,99091.22
2023-10-29T20:51:07.750Z,99097.13
2023-10-29T20:53:35.378Z,99098.75
2023-10-29T20:56:05.648Z,99098.22
2023-10-29T20:58:35.138Z,99099.28
2023-10-29T21:01:04.031Z,99096.59
2023-10-29T21:03:31.817Z,99094.22
2023-10-29T21:06:00.301Z,99106.53
2023-10-29T21:08:28.293Z,99112.16
2023-10-29T21:11:02.758Z,99122.03
2023-10-29T21:13:30.323Z,99122.53
2023-10-29T21:16:05.302Z,99116.88
2023-10-29T21:18:33.498Z,99114.25
2023-10-29T21:21:03.116Z,99098.94
2023-10-29T21:23:31.347Z,99096.81
2023-10-29T21:25:58.268Z,99110.97
2023-10-29T21:28:26.274Z,99124.00
2023-10-29T21:30:53.949Z,99124.78
2023-10-29T21:33:22.939Z,99128.56
2023-10-29T21:35:52.012Z,99135.03
2023-10-29T21:38:19.752Z,99140.28
2023-10-29T21:40:47.402Z,99137.53
2023-10-29T21:43:15.654Z,99130.03
2023-10-29T21:45:43.246Z,99136.44
2023-10-29T21:48:11.372Z,99124.63
2023-10-29T21:50:42.042Z,99144.44
2023-10-29T21:53:10.219Z,99144.44
2023-10-29T21:55:38.295Z,99144.69
2023-10-29T21:58:09.528Z,99140.97
2023-10-29T22:00:37.322Z,99145.00
2023-10-29T22:03:05.655Z,99151.13
2023-10-29T22:05:33.707Z,99158.66
2023-10-29T22:08:02.606Z,99157.84
2023-10-29T22:10:30.919Z,99163.94
2023-10-29T22:12:58.487Z,99163.38
2023-10-29T22:15:28.639Z,99171.94
2023-10-29T22:17:56.310Z,99160.50
2023-10-29T22:20:24.117Z,99171.22
2023-10-29T22:22:51.681Z,99178.19
2023-10-29T22:25:20.759Z,99181.34
2023-10-29T22:27:48.415Z,99179.22
2023-10-29T22:30:16.372Z,99177.59
2023-10-29T22:32:43.964Z,99190.44
2023-10-29T22:35:11.543Z,99178.41
2023-10-29T22:37:39.227Z,99190.47
2023-10-29T22:40:08.392Z,99191.47
2023-10-29T22:42:37.296Z,99190.94
2023-10-29T22:45:05.528Z,99194.13
2023-10-29T22:47:33.190Z,99190.63
2023-10-29T22:50:00.882Z,99192.75
2023-10-29T22:52:28.546Z,99191.94
2023-10-29T22:54:56.136Z,99193.50
2023-10-29T22:57:23.853Z,99197.53
2023-10-29T22:59:53.518Z,99194.44
2023-10-29T23:02:21.084Z,99194.66
2023-10-29T23:04:48.662Z,99201.13
2023-10-29T23:07:16.188Z,99195.59
2023-10-29T23:09:43.845Z,99203.84
2023-10-29T23:12:11.448Z,99209.31
2023-10-29T23:14:39.808Z,99207.78
2023-10-29T23:17:08.744Z,99207.22
2023-10-29T23:19:36.400Z,99213.63
2023-10-29T23:22:04.728Z,99213.13
2023-10-29T23:24:32.357Z,99216.34
2023-10-29T23:26:59.954Z,99215.84
2023-10-29T23:29:27.585Z,99216.38
2023-10-29T23:31:55.273Z,99229.19
2023-10-29T23:34:24.484Z,99226.53
2023-10-29T23:36:52.646Z,99232.72
2023-10-29T23:39:20.984Z,99234.09
2023-10-29T23:41:48.624Z,99235.19
2023-10-29T23:44:16.236Z,99244.31
2023-10-29T23:46:43.834Z,99240.31
2023-10-29T23:49:11.385Z,99251.84
2023-10-29T23:51:40.334Z,99243.28
2023-10-29T23:54:08.317Z,99253.69
2023-10-29T23:56:35.949Z,99261.22
2023-10-29T23:59:03.506Z,99260.47
